AEZ2353 LIEE-LIML
Flight info
| Callsign | AEZ2353 |
|---|---|
| Flight time | 1h 3m |
| Altitude | 30000 |
| Route | KOVAS DCT DEXUL DCT GIGGI DCT UPDUT DCT CORSI DCT OKROK DCT AKUTI DCT TORTU DCT ERTEV DCT OLETI DCT ITCAP |
| Aircraft | A319/M-SDE3FGHIRWY/LB1 |
Departure
| Time | 2026-05-01 08:01 |
|---|---|
| Airport | Cagliari Elmas Airport (LIEE) |
Arrival
| Time | 2026-05-01 09:04 |
|---|---|
| Airport | Milano Linate Airport (LIML) |
| Time | Latitude | Longitude | Altitude | Speed | Heading |
|---|---|---|---|---|---|
| 2026-05-01 07:23 | 39.25240 | 9.05946 | 20 ft | 0 kts | 322° |
| 2026-05-01 07:41 | 39.25230 | 9.05956 | 20 ft | 2 kts | 322° |
| 2026-05-01 07:42 | 39.25219 | 9.05968 | 20 ft | 2 kts | 322° |
| 2026-05-01 07:42 | 39.25207 | 9.05980 | 20 ft | 2 kts | 322° |
| 2026-05-01 07:42 | 39.25194 | 9.05992 | 20 ft | 2 kts | 322° |
| 2026-05-01 07:42 | 39.25182 | 9.06004 | 20 ft | 2 kts | 322° |
| 2026-05-01 07:43 | 39.25174 | 9.06012 | 20 ft | 0 kts | 322° |
| 2026-05-01 07:47 | 39.25176 | 9.06010 | 20 ft | 1 kts | 322° |
| 2026-05-01 07:48 | 39.25174 | 9.05972 | 20 ft | 2 kts | 228° |
| 2026-05-01 07:48 | 39.25166 | 9.05959 | 20 ft | 1 kts | 232° |
| 2026-05-01 07:50 | 39.25154 | 9.05939 | 20 ft | 6 kts | 232° |
| 2026-05-01 07:50 | 39.25111 | 9.05940 | 20 ft | 8 kts | 135° |
| 2026-05-01 07:51 | 39.25067 | 9.06002 | 20 ft | 10 kts | 132° |
| 2026-05-01 07:51 | 39.25011 | 9.06080 | 20 ft | 12 kts | 133° |
| 2026-05-01 07:51 | 39.24945 | 9.06160 | 20 ft | 13 kts | 140° |
| 2026-05-01 07:52 | 39.24777 | 9.06311 | 20 ft | 15 kts | 148° |
| 2026-05-01 07:52 | 39.24681 | 9.06388 | 20 ft | 16 kts | 148° |
| 2026-05-01 07:52 | 39.24582 | 9.06468 | 20 ft | 17 kts | 147° |
| 2026-05-01 07:53 | 39.24383 | 9.06587 | 20 ft | 14 kts | 202° |
| 2026-05-01 07:53 | 39.24332 | 9.06565 | 20 ft | 0 kts | 199° |
| 2026-05-01 07:53 | 39.24330 | 9.06564 | 20 ft | 0 kts | 199° |
| 2026-05-01 07:54 | 39.24322 | 9.06560 | 20 ft | 0 kts | 198° |
| 2026-05-01 07:59 | 39.24301 | 9.06552 | 20 ft | 4 kts | 198° |
| 2026-05-01 07:59 | 39.24211 | 9.06509 | 20 ft | 4 kts | 240° |
| 2026-05-01 08:00 | 39.24288 | 9.06424 | 20 ft | 24 kts | 317° |
| 2026-05-01 08:01 | 39.26128 | 9.04282 | 817 ft | 158 kts | 320° |
| 2026-05-01 08:01 | 39.27033 | 9.03505 | 1518 ft | 162 kts | 345° |
| 2026-05-01 08:01 | 39.28169 | 9.03376 | 2147 ft | 171 kts | 7° |
| 2026-05-01 08:02 | 39.30702 | 9.03772 | 3475 ft | 198 kts | 8° |
| 2026-05-01 08:02 | 39.32109 | 9.03947 | 4194 ft | 212 kts | 7° |
| 2026-05-01 08:03 | 39.35053 | 9.04209 | 6140 ft | 215 kts | 4° |
| 2026-05-01 08:03 | 39.36503 | 9.04294 | 7141 ft | 214 kts | 2° |
| 2026-05-01 08:03 | 39.39441 | 9.04433 | 9045 ft | 214 kts | 1° |
| 2026-05-01 08:04 | 39.42415 | 9.04562 | 10686 ft | 223 kts | 0° |
| 2026-05-01 08:04 | 39.45593 | 9.04689 | 12267 ft | 234 kts | 1° |
| 2026-05-01 08:05 | 39.48954 | 9.05076 | 13429 ft | 260 kts | 4° |
| 2026-05-01 08:05 | 39.50809 | 9.05312 | 13871 ft | 278 kts | 4° |
| 2026-05-01 08:05 | 39.52799 | 9.05566 | 14289 ft | 296 kts | 4° |
| 2026-05-01 08:06 | 39.57132 | 9.06121 | 15120 ft | 329 kts | 4° |
| 2026-05-01 08:06 | 39.61876 | 9.06729 | 16059 ft | 353 kts | 4° |
| 2026-05-01 08:07 | 39.66756 | 9.07819 | 17564 ft | 359 kts | 11° |
| 2026-05-01 08:07 | 39.71608 | 9.09423 | 18875 ft | 367 kts | 12° |
| 2026-05-01 08:08 | 39.74097 | 9.10265 | 19505 ft | 370 kts | 12° |
| 2026-05-01 08:08 | 39.79122 | 9.11961 | 20714 ft | 377 kts | 11° |
| 2026-05-01 08:09 | 39.84236 | 9.13591 | 21882 ft | 381 kts | 7° |
| 2026-05-01 08:09 | 39.86843 | 9.14131 | 22432 ft | 383 kts | 4° |
| 2026-05-01 08:09 | 39.89470 | 9.14428 | 22974 ft | 384 kts | 0° |
| 2026-05-01 08:10 | 39.94862 | 9.14725 | 24006 ft | 390 kts | 359° |
| 2026-05-01 08:10 | 40.00305 | 9.15003 | 24990 ft | 396 kts | 359° |
| 2026-05-01 08:11 | 40.05859 | 9.15289 | 25901 ft | 402 kts | 358° |
| 2026-05-01 08:11 | 40.11435 | 9.15576 | 26781 ft | 407 kts | 358° |
| 2026-05-01 08:12 | 40.17123 | 9.15873 | 27623 ft | 413 kts | 358° |
| 2026-05-01 08:12 | 40.19987 | 9.16025 | 28170 ft | 412 kts | 357° |
| 2026-05-01 08:12 | 40.25670 | 9.15855 | 29194 ft | 407 kts | 349° |
| 2026-05-01 08:13 | 40.28483 | 9.15375 | 29601 ft | 407 kts | 345° |
| 2026-05-01 08:13 | 40.31233 | 9.14647 | 29970 ft | 407 kts | 342° |
| 2026-05-01 08:13 | 40.36760 | 9.12929 | 30181 ft | 409 kts | 342° |
| 2026-05-01 08:14 | 40.42287 | 9.11183 | 30187 ft | 408 kts | 342° |
| 2026-05-01 08:14 | 40.47808 | 9.09444 | 30189 ft | 408 kts | 342° |
| 2026-05-01 08:15 | 40.56075 | 9.06838 | 30190 ft | 408 kts | 342° |
| 2026-05-01 08:16 | 40.61596 | 9.05096 | 30185 ft | 408 kts | 342° |
| 2026-05-01 08:16 | 40.67071 | 9.03362 | 30204 ft | 408 kts | 343° |
| 2026-05-01 08:17 | 40.72590 | 9.01617 | 30207 ft | 407 kts | 343° |
| 2026-05-01 08:17 | 40.78105 | 8.99866 | 30216 ft | 407 kts | 343° |
| 2026-05-01 08:18 | 40.83619 | 8.98114 | 30221 ft | 408 kts | 343° |
| 2026-05-01 08:19 | 40.94583 | 8.94622 | 30231 ft | 407 kts | 343° |
| 2026-05-01 08:19 | 41.00094 | 8.92864 | 30226 ft | 407 kts | 343° |
| 2026-05-01 08:20 | 41.05582 | 8.91104 | 30226 ft | 406 kts | 343° |
| 2026-05-01 08:20 | 41.11058 | 8.89347 | 30233 ft | 405 kts | 343° |
| 2026-05-01 08:21 | 41.16534 | 8.87586 | 30219 ft | 406 kts | 343° |
| 2026-05-01 08:21 | 41.22050 | 8.85813 | 30218 ft | 407 kts | 343° |
| 2026-05-01 08:22 | 41.27453 | 8.83813 | 30206 ft | 406 kts | 340° |
| 2026-05-01 08:22 | 41.32984 | 8.82099 | 30208 ft | 409 kts | 349° |
| 2026-05-01 08:23 | 41.38647 | 8.81566 | 30205 ft | 412 kts | 358° |
| 2026-05-01 08:23 | 41.44394 | 8.81811 | 30201 ft | 412 kts | 359° |
| 2026-05-01 08:24 | 41.50087 | 8.82116 | 30210 ft | 412 kts | 359° |
| 2026-05-01 08:24 | 41.55815 | 8.82424 | 30206 ft | 411 kts | 359° |
| 2026-05-01 08:25 | 41.61523 | 8.82727 | 30214 ft | 411 kts | 359° |
| 2026-05-01 08:25 | 41.67249 | 8.83030 | 30217 ft | 411 kts | 359° |
| 2026-05-01 08:26 | 41.72922 | 8.83332 | 30219 ft | 411 kts | 359° |
| 2026-05-01 08:26 | 41.78640 | 8.83634 | 30225 ft | 411 kts | 359° |
| 2026-05-01 08:27 | 41.84363 | 8.83938 | 30224 ft | 410 kts | 360° |
| 2026-05-01 08:27 | 41.90060 | 8.84242 | 30229 ft | 411 kts | 360° |
| 2026-05-01 08:28 | 41.95758 | 8.84545 | 30236 ft | 411 kts | 0° |
| 2026-05-01 08:28 | 42.01449 | 8.84852 | 30235 ft | 410 kts | 360° |
| 2026-05-01 08:29 | 42.07142 | 8.85156 | 30238 ft | 410 kts | 0° |
| 2026-05-01 08:29 | 42.12871 | 8.85463 | 30248 ft | 410 kts | 0° |
| 2026-05-01 08:30 | 42.18578 | 8.85771 | 30246 ft | 410 kts | 0° |
| 2026-05-01 08:30 | 42.24268 | 8.86078 | 30244 ft | 410 kts | 0° |
| 2026-05-01 08:31 | 42.29966 | 8.86384 | 30248 ft | 410 kts | 1° |
| 2026-05-01 08:31 | 42.35692 | 8.86693 | 30255 ft | 409 kts | 1° |
| 2026-05-01 08:32 | 42.41381 | 8.87003 | 30256 ft | 410 kts | 1° |
| 2026-05-01 08:32 | 42.47038 | 8.87310 | 30262 ft | 409 kts | 1° |
| 2026-05-01 08:33 | 42.52746 | 8.87620 | 30263 ft | 408 kts | 1° |
| 2026-05-01 08:33 | 42.58409 | 8.87927 | 30267 ft | 409 kts | 1° |
| 2026-05-01 08:34 | 42.64120 | 8.88238 | 30258 ft | 409 kts | 1° |
| 2026-05-01 08:34 | 42.69796 | 8.88549 | 30251 ft | 409 kts | 1° |
| 2026-05-01 08:35 | 42.75452 | 8.88858 | 30255 ft | 409 kts | 1° |
| 2026-05-01 08:35 | 42.81147 | 8.89204 | 30255 ft | 408 kts | 3° |
| 2026-05-01 08:36 | 42.86815 | 8.89835 | 30256 ft | 409 kts | 4° |
| 2026-05-01 08:36 | 42.92464 | 8.90499 | 30262 ft | 409 kts | 4° |
| 2026-05-01 08:37 | 42.98121 | 8.91161 | 30263 ft | 409 kts | 4° |
| 2026-05-01 08:37 | 43.03801 | 8.91824 | 30265 ft | 408 kts | 4° |
| 2026-05-01 08:38 | 43.09429 | 8.92481 | 30268 ft | 407 kts | 4° |
| 2026-05-01 08:38 | 43.15076 | 8.93141 | 30270 ft | 407 kts | 4° |
| 2026-05-01 08:39 | 43.20729 | 8.93805 | 30271 ft | 408 kts | 4° |
| 2026-05-01 08:39 | 43.26384 | 8.94455 | 30271 ft | 408 kts | 4° |
| 2026-05-01 08:40 | 43.34856 | 8.95397 | 30275 ft | 407 kts | 5° |
| 2026-05-01 08:40 | 43.40499 | 8.95838 | 30275 ft | 408 kts | 1° |
| 2026-05-01 08:41 | 43.46162 | 8.95853 | 30276 ft | 409 kts | 0° |
| 2026-05-01 08:41 | 43.51837 | 8.95848 | 30277 ft | 409 kts | 1° |
| 2026-05-01 08:42 | 43.57511 | 8.95851 | 30279 ft | 409 kts | 1° |
| 2026-05-01 08:42 | 43.63176 | 8.96179 | 30277 ft | 409 kts | 6° |
| 2026-05-01 08:43 | 43.68792 | 8.97310 | 30284 ft | 409 kts | 11° |
| 2026-05-01 08:43 | 43.74349 | 8.98909 | 30281 ft | 409 kts | 12° |
| 2026-05-01 08:44 | 43.79910 | 9.00478 | 30282 ft | 408 kts | 10° |
| 2026-05-01 08:44 | 43.85545 | 9.01419 | 30285 ft | 409 kts | 6° |
| 2026-05-01 08:45 | 43.91213 | 9.02096 | 30286 ft | 407 kts | 6° |
| 2026-05-01 08:45 | 43.96845 | 9.02762 | 30288 ft | 408 kts | 6° |
| 2026-05-01 08:46 | 44.02466 | 9.03430 | 29827 ft | 406 kts | 6° |
| 2026-05-01 08:46 | 44.05304 | 9.03767 | 28655 ft | 415 kts | 6° |
| 2026-05-01 08:46 | 44.08181 | 9.04106 | 27400 ft | 423 kts | 7° |
| 2026-05-01 08:47 | 44.11102 | 9.04454 | 26664 ft | 418 kts | 7° |
| 2026-05-01 08:47 | 44.13942 | 9.04793 | 26133 ft | 409 kts | 7° |
| 2026-05-01 08:47 | 44.16775 | 9.05132 | 25594 ft | 400 kts | 7° |
| 2026-05-01 08:47 | 44.19535 | 9.05463 | 25060 ft | 393 kts | 8° |
| 2026-05-01 08:48 | 44.22232 | 9.05787 | 24525 ft | 387 kts | 8° |
| 2026-05-01 08:48 | 44.24859 | 9.06102 | 24006 ft | 381 kts | 8° |
| 2026-05-01 08:48 | 44.27473 | 9.06418 | 23486 ft | 375 kts | 8° |
| 2026-05-01 08:48 | 44.30046 | 9.06732 | 23003 ft | 369 kts | 8° |
| 2026-05-01 08:49 | 44.32593 | 9.07040 | 22503 ft | 364 kts | 8° |
| 2026-05-01 08:49 | 44.35094 | 9.07344 | 21992 ft | 360 kts | 8° |
| 2026-05-01 08:49 | 44.37592 | 9.07646 | 21497 ft | 356 kts | 8° |
| 2026-05-01 08:49 | 44.40042 | 9.07905 | 20983 ft | 354 kts | 6° |
| 2026-05-01 08:50 | 44.42487 | 9.08019 | 20255 ft | 356 kts | 7° |
| 2026-05-01 08:50 | 44.44951 | 9.08474 | 19223 ft | 364 kts | 13° |
| 2026-05-01 08:50 | 44.47429 | 9.09147 | 18345 ft | 368 kts | 14° |
| 2026-05-01 08:50 | 44.49933 | 9.09855 | 17705 ft | 366 kts | 13° |
| 2026-05-01 08:51 | 44.52408 | 9.10550 | 17133 ft | 362 kts | 13° |
| 2026-05-01 08:51 | 44.54877 | 9.11237 | 16527 ft | 359 kts | 13° |
| 2026-05-01 08:51 | 44.57313 | 9.11914 | 15905 ft | 358 kts | 13° |
| 2026-05-01 08:51 | 44.59713 | 9.12579 | 15313 ft | 356 kts | 13° |
| 2026-05-01 08:52 | 44.62150 | 9.13250 | 14705 ft | 354 kts | 12° |
| 2026-05-01 08:52 | 44.64534 | 9.13906 | 14134 ft | 352 kts | 12° |
| 2026-05-01 08:52 | 44.66942 | 9.14569 | 13528 ft | 349 kts | 12° |
| 2026-05-01 08:52 | 44.69277 | 9.15209 | 12914 ft | 338 kts | 12° |
| 2026-05-01 08:53 | 44.71541 | 9.15829 | 11698 ft | 337 kts | 12° |
| 2026-05-01 08:53 | 44.73843 | 9.16464 | 10416 ft | 343 kts | 12° |
| 2026-05-01 08:53 | 44.76150 | 9.17101 | 10023 ft | 331 kts | 12° |
| 2026-05-01 08:53 | 44.78343 | 9.17705 | 9900 ft | 314 kts | 12° |
| 2026-05-01 08:54 | 44.80424 | 9.18279 | 9799 ft | 298 kts | 12° |
| 2026-05-01 08:54 | 44.82415 | 9.18827 | 9657 ft | 285 kts | 11° |
| 2026-05-01 08:54 | 44.84326 | 9.19354 | 9464 ft | 275 kts | 12° |
| 2026-05-01 08:54 | 44.86171 | 9.19863 | 9221 ft | 269 kts | 12° |
| 2026-05-01 08:55 | 44.88017 | 9.20373 | 8910 ft | 267 kts | 12° |
| 2026-05-01 08:55 | 44.89823 | 9.20872 | 8580 ft | 265 kts | 12° |
| 2026-05-01 08:55 | 44.91624 | 9.21372 | 8231 ft | 264 kts | 12° |
| 2026-05-01 08:55 | 44.93404 | 9.21866 | 7885 ft | 262 kts | 12° |
| 2026-05-01 08:56 | 44.95182 | 9.22359 | 7536 ft | 260 kts | 12° |
| 2026-05-01 08:56 | 44.96954 | 9.22852 | 7179 ft | 258 kts | 12° |
| 2026-05-01 08:56 | 44.98719 | 9.23343 | 6839 ft | 256 kts | 11° |
| 2026-05-01 08:56 | 45.00464 | 9.23829 | 6499 ft | 255 kts | 11° |
| 2026-05-01 08:57 | 45.02190 | 9.24309 | 6159 ft | 253 kts | 11° |
| 2026-05-01 08:57 | 45.03901 | 9.24782 | 5817 ft | 252 kts | 12° |
| 2026-05-01 08:57 | 45.05632 | 9.25261 | 5467 ft | 251 kts | 12° |
| 2026-05-01 08:57 | 45.07336 | 9.25734 | 5122 ft | 250 kts | 12° |
| 2026-05-01 08:58 | 45.09019 | 9.26203 | 4776 ft | 249 kts | 12° |
| 2026-05-01 08:58 | 45.10731 | 9.26681 | 4434 ft | 249 kts | 12° |
| 2026-05-01 08:58 | 45.12437 | 9.27157 | 4089 ft | 249 kts | 13° |
| 2026-05-01 08:58 | 45.14125 | 9.27628 | 3757 ft | 249 kts | 13° |
| 2026-05-01 08:59 | 45.15831 | 9.28105 | 3414 ft | 249 kts | 13° |
| 2026-05-01 08:59 | 45.17514 | 9.28574 | 3269 ft | 240 kts | 14° |
| 2026-05-01 08:59 | 45.19108 | 9.29018 | 3188 ft | 229 kts | 15° |
| 2026-05-01 08:59 | 45.20613 | 9.29536 | 3103 ft | 223 kts | 16° |
| 2026-05-01 09:00 | 45.22172 | 9.29902 | 3009 ft | 226 kts | 6° |
| 2026-05-01 09:00 | 45.23743 | 9.29934 | 2949 ft | 228 kts | 0° |
| 2026-05-01 09:00 | 45.25325 | 9.29800 | 2948 ft | 229 kts | 358° |
| 2026-05-01 09:00 | 45.26920 | 9.29616 | 2948 ft | 229 kts | 358° |
| 2026-05-01 09:01 | 45.28467 | 9.29434 | 2941 ft | 215 kts | 358° |
| 2026-05-01 09:01 | 45.29921 | 9.29269 | 2907 ft | 203 kts | 358° |
| 2026-05-01 09:01 | 45.31308 | 9.29120 | 2708 ft | 200 kts | 358° |
| 2026-05-01 09:01 | 45.32706 | 9.28972 | 2443 ft | 201 kts | 358° |
| 2026-05-01 09:02 | 45.34095 | 9.28824 | 2177 ft | 200 kts | 358° |
| 2026-05-01 09:02 | 45.35447 | 9.28677 | 1922 ft | 190 kts | 359° |
| 2026-05-01 09:02 | 45.36698 | 9.28540 | 1716 ft | 173 kts | 359° |
| 2026-05-01 09:02 | 45.37849 | 9.28416 | 1487 ft | 160 kts | 359° |
| 2026-05-01 09:03 | 45.38915 | 9.28302 | 1250 ft | 147 kts | 359° |
| 2026-05-01 09:03 | 45.39894 | 9.28196 | 1043 ft | 134 kts | 360° |
| 2026-05-01 09:03 | 45.40810 | 9.28102 | 876 ft | 133 kts | 359° |
| 2026-05-01 09:03 | 45.41752 | 9.28011 | 699 ft | 140 kts | 0° |
| 2026-05-01 09:04 | 45.42750 | 9.27910 | 548 ft | 143 kts | 358° |
| 2026-05-01 09:04 | 45.43700 | 9.27784 | 378 ft | 133 kts | 359° |
| 2026-05-01 09:04 | 45.44610 | 9.27692 | 363 ft | 119 kts | 358° |
| 2026-05-01 09:04 | 45.45156 | 9.27638 | 363 ft | 25 kts | 356° |
| 2026-05-01 09:05 | 45.45328 | 9.27668 | 363 ft | 25 kts | 25° |
| 2026-05-01 09:05 | 45.45422 | 9.27741 | 363 ft | 4 kts | 33° |
| 2026-05-01 09:05 | 45.45465 | 9.27793 | 363 ft | 13 kts | 38° |
| 2026-05-01 09:05 | 45.45556 | 9.27819 | 363 ft | 14 kts | 353° |
| 2026-05-01 09:06 | 45.45658 | 9.27814 | 363 ft | 15 kts | 0° |
| 2026-05-01 09:06 | 45.45767 | 9.27817 | 363 ft | 16 kts | 360° |
| 2026-05-01 09:06 | 45.45861 | 9.27819 | 363 ft | 8 kts | 0° |
| 2026-05-01 09:06 | 45.45910 | 9.27862 | 363 ft | 9 kts | 84° |
| 2026-05-01 09:07 | 45.45908 | 9.27939 | 363 ft | 3 kts | 92° |
| 2026-05-01 09:07 | 45.45910 | 9.27950 | 363 ft | 1 kts | 60° |
| 2026-05-01 09:07 | 45.45925 | 9.27963 | 363 ft | 3 kts | 14° |
| 2026-05-01 09:07 | 45.45955 | 9.27966 | 363 ft | 5 kts | 1° |
| 2026-05-01 09:08 | 45.45974 | 9.27966 | 363 ft | 1 kts | 0° |
| 2026-05-01 09:08 | 45.45982 | 9.27966 | 363 ft | 0 kts | 0° |